Time;durP1;ratioP1;P1;durP2;ratioP2;P2;SDS_P1;SDS_P2;PMS_P1;PMS_P2;Temp;Humidity;BMP_temperature;BMP_pressure;BME280_temperature;BME280_humidity;BME280_pressure;Samples;Min_cycle;Max_cycle;Signal;HPM_P1;HPM_P2
2022/03/11 00:00:27;;;;;;;;;47.50;37.75;;;;;9.68;57.50;101186.47;2451457;28;45411;-88
2022/03/11 00:01:37;;;;;;;;;45.75;37.00;;;;;9.69;57.58;101189.97;2451623;28;45424;-88
2022/03/11 00:02:48;;;;;;;;;49.25;39.75;;;;;9.67;57.77;101183.91;2451415;28;44694;-87
2022/03/11 00:03:58;;;;;;;;;48.75;40.50;;;;;9.67;57.51;101187.38;2443515;28;48098;-88
2022/03/11 00:05:09;;;;;;;;;48.25;38.25;;;;;9.66;57.60;101185.66;2451355;28;45333;-87
2022/03/11 00:06:19;;;;;;;;;49.50;38.25;;;;;9.66;57.50;101188.28;2451305;28;47093;-87
2022/03/11 00:07:30;;;;;;;;;45.25;36.75;;;;;9.66;57.34;101180.41;2451568;28;45299;-87
2022/03/11 00:08:40;;;;;;;;;49.00;37.75;;;;;9.65;57.50;101178.69;2451754;28;45319;-88
2022/03/11 00:09:51;;;;;;;;;42.50;35.00;;;;;9.63;57.80;101175.22;2452379;27;45226;-87
2022/03/11 00:11:01;;;;;;;;;44.75;35.25;;;;;9.65;57.76;101173.44;2458735;27;45240;-87
2022/03/11 00:12:11;;;;;;;;;45.50;38.00;;;;;9.63;57.72;101169.13;2456958;27;45226;-87
2022/03/11 00:13:23;;;;;;;;;50.50;39.25;;;;;9.64;57.87;101168.22;2451739;28;46522;-87
2022/03/11 00:14:35;;;;;;;;;43.50;35.25;;;;;9.65;57.85;101162.94;2451941;27;45401;-85
2022/03/11 00:15:45;;;;;;;;;44.75;35.00;;;;;9.68;58.05;101169.84;2451737;28;46580;-83
2022/03/11 00:16:56;;;;;;;;;48.50;39.25;;;;;9.68;57.83;101173.34;2451853;28;45232;-83
2022/03/11 00:18:06;;;;;;;;;50.25;39.00;;;;;9.72;57.93;101170.66;2452011;27;45365;-83
2022/03/11 00:19:16;;;;;;;;;45.75;38.25;;;;;9.72;58.18;101166.28;2451187;28;45388;-82
2022/03/11 00:20:27;;;;;;;;;48.00;38.75;;;;;9.77;57.75;101172.28;2451249;28;45338;-81
2022/03/11 00:21:37;;;;;;;;;44.50;35.50;;;;;9.81;57.78;101173.06;2451984;28;44666;-81
2022/03/11 00:22:52;;;;;;;;;37.75;32.50;;;;;9.86;57.92;101165.09;2452163;27;45322;-81
2022/03/11 00:24:03;;;;;;;;;38.25;32.00;;;;;9.88;57.91;101166.78;2451230;28;45233;-82
2022/03/11 00:25:14;;;;;;;;;40.75;35.75;;;;;9.89;57.81;101158.03;2451854;28;46509;-82
2022/03/11 00:26:25;;;;;;;;;44.50;35.50;;;;;9.95;57.86;101158.78;2452006;27;45243;-82
2022/03/11 00:27:35;;;;;;;;;39.75;33.50;;;;;9.95;57.94;101154.38;2452022;28;45260;-81
2022/03/11 00:28:46;;;;;;;;;37.50;32.25;;;;;9.99;57.78;101161.28;2451965;27;45320;-81
2022/03/11 00:29:56;;;;;;;;;40.50;32.75;;;;;10.01;57.48;101156.00;2451820;28;45361;-82
2022/03/11 00:31:07;;;;;;;;;39.50;33.25;;;;;10.06;57.96;101161.13;2452012;27;45338;-82
2022/03/11 00:32:17;;;;;;;;;38.75;34.00;;;;;10.07;57.32;101161.13;2451750;28;46351;-81
2022/03/11 00:33:27;;;;;;;;;36.50;31.25;;;;;10.12;57.59;101156.59;2451623;28;44718;-82
2022/03/11 00:34:38;;;;;;;;;39.25;33.00;;;;;10.13;57.27;101155.69;2451473;27;45267;-82
2022/03/11 00:35:48;;;;;;;;;37.50;31.75;;;;;10.16;57.46;101151.25;2451947;28;44688;-82
2022/03/11 00:36:58;;;;;;;;;41.25;34.25;;;;;10.20;56.68;101159.03;2450620;28;45968;-81
2022/03/11 00:38:09;;;;;;;;;38.50;32.25;;;;;10.21;57.09;101154.66;2451125;28;45250;-82
2022/03/11 00:39:20;;;;;;;;;39.50;32.50;;;;;10.21;57.25;101141.50;2451584;28;45574;-82
2022/03/11 00:40:30;;;;;;;;;34.25;31.00;;;;;10.22;56.89;101140.63;2451931;28;45216;-81
2022/03/11 00:41:41;;;;;;;;;35.50;31.25;;;;;10.23;56.79;101144.97;2451696;28;46353;-81
2022/03/11 00:42:52;;;;;;;;;37.25;33.00;;;;;10.22;56.87;101153.75;2451987;27;45234;-81
2022/03/11 00:44:02;;;;;;;;;37.50;31.75;;;;;10.19;57.01;101143.31;2451488;27;45214;-82
2022/03/11 00:45:13;;;;;;;;;38.00;32.25;;;;;10.18;57.27;101149.47;2451951;28;45482;-81
2022/03/11 00:46:23;;;;;;;;;39.00;32.25;;;;;10.16;57.14;101146.88;2451644;28;45469;-81
2022/03/11 00:47:34;;;;;;;;;44.25;34.25;;;;;10.11;57.18;101144.38;2451945;27;45384;-81
2022/03/11 00:48:44;;;;;;;;;34.75;32.00;;;;;10.10;57.16;101140.00;2451558;28;46480;-81
2022/03/11 00:49:54;;;;;;;;;36.25;31.00;;;;;10.08;57.20;101144.44;2451719;27;45164;-81
2022/03/11 00:51:05;;;;;;;;;36.00;32.25;;;;;10.05;56.91;101144.50;2451552;28;46347;-81
2022/03/11 00:52:15;;;;;;;;;45.50;35.00;;;;;10.01;57.23;101132.34;2451882;27;44676;-83
2022/03/11 00:53:27;;;;;;;;;40.50;32.75;;;;;9.98;57.26;101130.66;2442868;28;45416;-82
2022/03/11 00:54:37;;;;;;;;;41.00;34.50;;;;;9.97;56.98;101134.22;2450373;28;45447;-82
2022/03/11 00:55:48;;;;;;;;;33.75;30.00;;;;;9.96;57.21;101126.34;2451763;27;46107;-81
2022/03/11 00:56:58;;;;;;;;;35.75;31.25;;;;;9.94;57.11;101128.16;2451720;28;44609;-81
2022/03/11 00:58:09;;;;;;;;;38.50;34.25;;;;;9.96;57.51;101128.97;2451623;28;46187;-81
2022/03/11 00:59:19;;;;;;;;;36.75;33.00;;;;;9.97;57.64;101131.59;2451758;28;45239;-81
2022/03/11 01:00:29;;;;;;;;;39.50;34.00;;;;;9.99;57.59;101128.91;2451656;28;46382;-81
2022/03/11 01:01:40;;;;;;;;;35.25;31.50;;;;;10.01;57.28;101121.84;2451860;27;44597;-81
2022/03/11 01:02:50;;;;;;;;;33.25;30.00;;;;;10.05;57.48;101120.88;2450449;28;45258;-81
2022/03/11 01:04:00;;;;;;;;;37.25;32.75;;;;;10.07;57.49;101113.84;2451272;28;45475;-81
2022/03/11 01:05:11;;;;;;;;;37.00;30.50;;;;;10.10;57.78;101116.38;2451232;28;46329;-81
2022/03/11 01:06:21;;;;;;;;;35.75;32.25;;;;;10.15;57.61;101111.00;2451758;28;45236;-87
2022/03/11 01:07:33;;;;;;;;;38.50;32.00;;;;;10.18;57.33;101113.56;2450456;28;46860;-88
2022/03/11 01:08:43;;;;;;;;;40.00;32.50;;;;;10.23;57.52;101109.03;2450701;28;45497;-90
2022/03/11 01:09:54;;;;;;;;;34.50;31.00;;;;;10.24;57.44;101110.78;2451664;27;45418;-90
2022/03/11 01:11:08;;;;;;;;;43.75;33.00;;;;;10.29;57.35;101109.78;2458903;27;45271;-90
2022/03/11 01:12:18;;;;;;;;;43.00;33.00;;;;;10.32;57.12;101107.94;2455371;27;45265;-87
2022/03/11 01:13:29;;;;;;;;;34.75;31.50;;;;;10.35;57.14;101110.50;2451442;28;45293;-87
2022/03/11 01:14:39;;;;;;;;;30.50;28.50;;;;;10.39;57.18;101115.69;2450504;28;46867;-87
2022/03/11 01:15:50;;;;;;;;;34.25;32.00;;;;;10.41;57.07;101113.88;2450992;28;45256;-87
2022/03/11 01:17:00;;;;;;;;;34.25;30.75;;;;;10.42;57.07;101110.34;2450743;28;47775;-87
2022/03/11 01:18:11;;;;;;;;;44.75;35.00;;;;;10.44;57.05;101119.06;2451140;28;45252;-87
2022/03/11 01:19:21;;;;;;;;;41.50;32.00;;;;;10.48;57.00;101115.44;2451554;28;45305;-86
2022/03/11 01:20:31;;;;;;;;;38.00;32.50;;;;;10.51;57.23;101120.66;2450744;28;45239;-86
2022/03/11 01:21:42;;;;;;;;;32.75;30.00;;;;;10.53;56.84;101120.59;2450535;28;45467;-86
2022/03/11 01:22:53;;;;;;;;;41.25;32.75;;;;;10.55;56.97;101113.53;2451724;27;45213;-83
2022/03/11 01:24:04;;;;;;;;;35.00;31.75;;;;;10.56;56.83;101110.00;2451066;28;45176;-81
2022/03/11 01:25:14;;;;;;;;;40.00;31.00;;;;;10.56;56.96;101108.25;2451521;28;45297;-81
2022/03/11 01:26:24;;;;;;;;;37.00;32.75;;;;;10.60;56.73;101113.41;2451338;28;46381;-81
2022/03/11 01:27:36;;;;;;;;;37.25;31.75;;;;;10.60;56.54;101109.00;2451717;28;45341;-81
2022/03/11 01:28:47;;;;;;;;;39.00;31.25;;;;;10.61;56.92;101102.84;2451307;27;45401;-81
2022/03/11 01:29:58;;;;;;;;;42.25;31.75;;;;;10.63;56.59;101101.03;2451626;28;45143;-83
2022/03/11 01:31:11;;;;;;;;;32.00;30.50;;;;;10.66;57.12;101100.09;2450953;28;45568;-83
2022/03/11 01:32:22;;;;;;;;;36.00;32.25;;;;;10.66;56.65;101097.47;2451765;27;44572;-83
2022/03/11 01:33:32;;;;;;;;;31.25;29.00;;;;;10.68;56.72;101098.28;2451180;27;45270;-81
2022/03/11 01:34:42;;;;;;;;;37.50;31.50;;;;;10.67;56.39;101092.16;2451475;27;45435;-81
2022/03/11 01:35:53;;;;;;;;;35.00;30.50;;;;;10.69;56.46;101092.13;2451494;28;45474;-81
2022/03/11 01:37:04;;;;;;;;;32.25;31.25;;;;;10.70;56.41;101088.59;2450990;28;45276;-80
2022/03/11 01:38:14;;;;;;;;;35.75;31.00;;;;;10.71;56.59;101098.22;2451003;27;45384;-82
2022/03/11 01:39:25;;;;;;;;;35.75;30.75;;;;;10.72;56.21;101097.28;2451639;28;45210;-81
2022/03/11 01:40:35;;;;;;;;;34.00;32.00;;;;;10.73;56.56;101090.28;2451289;27;45406;-81
2022/03/11 01:41:46;;;;;;;;;34.50;32.00;;;;;10.74;56.39;101090.22;2451237;27;45206;-81
2022/03/11 01:42:56;;;;;;;;;32.00;30.50;;;;;10.75;56.44;101094.59;2451100;27;46357;-81
2022/03/11 01:44:08;;;;;;;;;30.25;28.75;;;;;10.74;56.31;101090.22;2451648;28;44684;-81
2022/03/11 01:45:18;;;;;;;;;32.50;29.00;;;;;10.75;56.38;101080.56;2451269;28;46128;-81
2022/03/11 01:46:30;;;;;;;;;34.75;32.00;;;;;10.75;56.58;101081.44;2451464;28;44634;-81
2022/03/11 01:47:40;;;;;;;;;33.25;30.00;;;;;10.75;56.48;101081.44;2451278;28;45300;-81
2022/03/11 01:48:50;;;;;;;;;32.00;28.50;;;;;10.75;56.30;101078.81;2451606;28;44598;-81
2022/03/11 01:50:03;;;;;;;;;31.50;29.00;;;;;10.72;56.26;101073.63;2451109;28;45410;-81
2022/03/11 01:51:13;;;;;;;;;32.50;28.75;;;;;10.76;56.41;101072.66;2451046;27;46720;-82
2022/03/11 01:52:25;;;;;;;;;26.00;26.00;;;;;10.75;56.36;101067.41;2451103;28;45332;-81
2022/03/11 01:53:35;;;;;;;;;33.00;31.00;;;;;10.76;56.46;101072.66;2451282;27;45276;-83
2022/03/11 01:54:47;;;;;;;;;33.25;29.50;;;;;10.77;56.08;101071.72;2450344;28;46960;-83
2022/03/11 01:55:57;;;;;;;;;33.50;26.25;;;;;10.76;56.40;101067.41;2450825;28;45383;-84
2022/03/11 01:57:08;;;;;;;;;34.25;30.00;;;;;10.77;56.29;101074.34;2451190;28;45036;-83
2022/03/11 01:58:19;;;;;;;;;31.00;29.25;;;;;10.75;56.14;101063.03;2451399;27;45244;-83
2022/03/11 01:59:29;;;;;;;;;30.75;29.25;;;;;10.76;56.59;101072.66;2451228;28;46358;-83
2022/03/11 02:00:40;;;;;;;;;30.50;27.25;;;;;10.76;55.98;101075.28;2451416;28;45405;-83
2022/03/11 02:01:50;;;;;;;;;33.00;29.00;;;;;10.76;56.47;101072.66;2450895;28;45831;-84
2022/03/11 02:03:01;;;;;;;;;30.75;29.00;;;;;10.78;56.08;101069.97;2451060;28;45195;-84
2022/03/11 02:04:12;;;;;;;;;35.25;30.75;;;;;10.76;56.37;101070.03;2450201;28;46274;-83
2022/03/11 02:05:23;;;;;;;;;35.00;29.25;;;;;10.77;56.57;101068.22;2449960;28;45464;-82
2022/03/11 02:06:34;;;;;;;;;31.25;28.75;;;;;10.78;56.31;101067.34;2450932;27;45630;-82
2022/03/11 02:07:44;;;;;;;;;32.25;29.00;;;;;10.78;56.24;101068.22;2451372;27;45370;-83
2022/03/11 02:08:55;;;;;;;;;30.75;25.25;;;;;10.78;56.39;101070.84;2450730;27;46255;-83
2022/03/11 02:10:06;;;;;;;;;27.50;27.50;;;;;10.82;56.44;101076.00;2451251;27;45209;-82
2022/03/11 02:11:16;;;;;;;;;27.00;24.25;;;;;10.84;56.50;101076.84;2456543;27;46359;-83
2022/03/11 02:12:32;;;;;;;;;29.00;27.00;;;;;10.84;56.42;101074.19;2451432;28;44686;-83
2022/03/11 02:13:58;;;;;;;;;31.50;29.75;;;;;10.88;56.36;101081.09;2450016;28;46259;-83
2022/03/11 02:15:09;;;;;;;;;30.00;29.00;;;;;10.88;56.58;101067.94;2450416;28;45308;-83
2022/03/11 02:16:24;;;;;;;;;21.75;21.75;;;;;10.89;56.34;101057.38;2450423;28;45998;-83
2022/03/11 02:17:34;;;;;;;;;28.00;26.00;;;;;10.89;56.51;101065.25;2451290;27;45168;-83
2022/03/11 02:18:45;;;;;;;;;25.50;23.50;;;;;10.90;56.31;101061.72;2451033;27;45346;-83
2022/03/11 02:19:55;;;;;;;;;28.25;26.75;;;;;10.93;56.21;101058.16;2451100;28;45216;-83
2022/03/11 02:21:07;;;;;;;;;28.00;26.25;;;;;10.96;56.17;101065.97;2450914;27;46424;-82
2022/03/11 02:22:23;;;;;;;;;24.25;21.25;;;;;10.96;56.15;101055.44;2450391;28;45265;-82
2022/03/11 02:23:41;;;;;;;;;28.75;27.50;;;;;10.98;56.14;101060.66;2450358;28;45395;-81
2022/03/11 02:24:53;;;;;;;;;30.75;26.00;;;;;10.98;56.21;101063.28;2451185;28;45258;-82
2022/03/11 02:26:04;;;;;;;;;31.00;26.50;;;;;10.99;55.90;101052.69;2450948;27;45334;-80
2022/03/11 02:27:14;;;;;;;;;25.75;24.75;;;;;11.00;56.38;101059.69;2451379;28;45316;-80
2022/03/11 02:28:32;;;;;;;;;31.00;28.50;;;;;11.02;56.31;101063.13;2450964;27;45274;-80
2022/03/11 02:29:43;;;;;;;;;29.50;26.75;;;;;11.03;56.09;101054.34;2451303;27;45222;-80
2022/03/11 02:30:53;;;;;;;;;29.50;25.50;;;;;11.05;56.00;101051.66;2451093;28;45560;-85
2022/03/11 02:32:04;;;;;;;;;28.75;24.75;;;;;11.03;56.00;101049.09;2450494;28;45435;-85
2022/03/11 02:33:14;;;;;;;;;31.50;25.50;;;;;11.07;56.23;101054.22;2449876;28;48189;-85
2022/03/11 02:34:25;;;;;;;;;31.75;27.75;;;;;11.07;56.58;101052.47;2443183;28;45240;-87
2022/03/11 02:35:35;;;;;;;;;29.75;28.25;;;;;11.08;55.93;101050.72;2450411;28;45462;-86
2022/03/11 02:36:45;;;;;;;;;23.50;17.50;;;;;11.08;56.27;101051.56;2450755;27;45283;-86
2022/03/11 02:37:56;;;;;;;;;28.75;24.25;;;;;11.10;56.01;101048.88;2450671;27;45484;-85
2022/03/11 02:39:07;;;;;;;;;33.75;26.25;;;;;11.12;56.14;101050.56;2451006;27;45385;-85
2022/03/11 02:40:18;;;;;;;;;29.50;25.75;;;;;11.12;56.25;101047.06;2451072;28;46222;-86
2022/03/11 02:41:28;;;;;;;;;33.00;25.50;;;;;11.13;55.82;101052.31;2450063;28;45260;-82
2022/03/11 02:42:38;;;;;;;;;28.50;26.25;;;;;11.13;56.17;101040.91;2450328;28;46350;-82
2022/03/11 02:43:49;;;;;;;;;28.25;25.75;;;;;11.12;55.77;101039.19;2450334;28;45294;-85
2022/03/11 02:45:03;;;;;;;;;29.25;27.25;;;;;11.10;55.90;101030.47;2450344;28;45558;-85
2022/03/11 02:46:14;;;;;;;;;21.50;20.00;;;;;11.12;56.07;101036.53;2450258;28;44765;-84
2022/03/11 02:47:24;;;;;;;;;27.75;25.00;;;;;11.11;56.11;101034.84;2450384;28;45362;-84
2022/03/11 02:48:35;;;;;;;;;31.00;29.00;;;;;11.10;55.82;101026.09;2451111;27;45282;-85
2022/03/11 02:49:45;;;;;;;;;31.25;27.50;;;;;11.10;55.86;101036.59;2450680;28;45329;-81
2022/03/11 02:50:56;;;;;;;;;29.50;26.75;;;;;11.10;56.00;101033.09;2450960;28;45315;-81
2022/03/11 02:52:06;;;;;;;;;28.75;27.25;;;;;11.10;56.06;101033.09;2450469;28;45255;-81
2022/03/11 02:53:17;;;;;;;;;26.25;23.50;;;;;11.06;55.90;101027.09;2450825;27;45200;-81
2022/03/11 02:54:27;;;;;;;;;31.75;25.50;;;;;11.03;55.79;101035.94;2450815;27;46134;-81
2022/03/11 02:55:37;;;;;;;;;23.75;22.50;;;;;10.99;56.03;101031.66;2450931;27;45472;-88
2022/03/11 02:56:48;;;;;;;;;28.75;25.25;;;;;10.96;55.89;101026.50;2450938;28;45354;-83
2022/03/11 02:57:58;;;;;;;;;29.75;26.25;;;;;10.94;55.99;101032.72;2450867;28;45274;-83
2022/03/11 02:59:09;;;;;;;;;26.75;23.50;;;;;10.89;55.96;101024.97;2449957;28;45936;-83
2022/03/11 03:00:19;;;;;;;;;35.00;28.25;;;;;10.85;56.36;101023.31;2450477;28;45252;-83
2022/03/11 03:01:30;;;;;;;;;35.25;30.00;;;;;10.82;56.08;101028.66;2450179;28;46508;-83
2022/03/11 03:02:40;;;;;;;;;34.00;28.75;;;;;10.78;56.33;101025.28;2450721;27;45202;-83
2022/03/11 03:03:50;;;;;;;;;31.25;28.75;;;;;10.75;56.23;101027.97;2450609;27;45275;-88
2022/03/11 03:05:01;;;;;;;;;29.50;26.50;;;;;10.70;56.39;101022.84;2449863;28;45290;-80
2022/03/11 03:06:12;;;;;;;;;26.00;24.50;;;;;10.64;56.14;101026.50;2442978;28;47109;-81
2022/03/11 03:07:22;;;;;;;;;25.75;23.50;;;;;10.61;56.21;101020.50;2450365;28;45258;-81
2022/03/11 03:08:33;;;;;;;;;25.75;23.25;;;;;10.58;56.63;101019.69;2449644;28;48178;-82
2022/03/11 03:09:43;;;;;;;;;31.25;26.25;;;;;10.54;56.60;101020.66;2450395;28;45320;-82
2022/03/11 03:10:53;;;;;;;;;28.75;26.25;;;;;10.50;56.55;101016.38;2455735;27;45401;-82
2022/03/11 03:12:04;;;;;;;;;27.75;25.50;;;;;10.47;56.95;101013.81;2449690;28;45347;-82
2022/03/11 03:13:15;;;;;;;;;30.00;28.00;;;;;10.45;56.93;101010.38;2449941;28;46305;-83
2022/03/11 03:14:25;;;;;;;;;29.00;24.00;;;;;10.40;56.88;101007.88;2450825;27;45317;-83
2022/03/11 03:15:35;;;;;;;;;32.25;26.50;;;;;10.36;56.79;100998.38;2450005;28;47918;-83
2022/03/11 03:16:46;;;;;;;;;25.50;24.00;;;;;10.33;57.03;101001.94;2450087;28;45406;-83
2022/03/11 03:17:56;;;;;;;;;24.50;22.00;;;;;10.31;56.71;100997.63;2450651;27;45294;-83
2022/03/11 03:19:07;;;;;;;;;27.75;26.50;;;;;10.27;56.86;100996.88;2450784;27;45299;-83
2022/03/11 03:20:17;;;;;;;;;26.25;25.75;;;;;10.25;57.10;101003.91;2450672;27;46176;-83
2022/03/11 03:21:27;;;;;;;;;25.75;22.00;;;;;10.20;57.19;100992.66;2450502;27;45530;-87
2022/03/11 03:22:38;;;;;;;;;26.75;24.75;;;;;10.17;57.26;100988.38;2449859;28;47860;-87
2022/03/11 03:23:49;;;;;;;;;28.25;26.25;;;;;10.16;57.34;100984.03;2450070;28;44646;-87
2022/03/11 03:24:59;;;;;;;;;29.25;26.50;;;;;10.15;57.56;100986.69;2450660;28;46488;-87
2022/03/11 03:26:09;;;;;;;;;27.25;23.75;;;;;10.11;57.63;100985.91;2451280;27;44738;-87
2022/03/11 03:27:20;;;;;;;;;25.00;23.00;;;;;10.07;57.78;100990.41;2452030;28;45350;-86
2022/03/11 03:28:30;;;;;;;;;23.50;21.75;;;;;10.05;57.65;100984.31;2451925;28;45246;-86
2022/03/11 03:29:41;;;;;;;;;24.25;21.75;;;;;10.03;57.44;100994.00;2451804;28;45442;-86
2022/03/11 03:30:51;;;;;;;;;22.50;20.75;;;;;10.01;57.72;100990.53;2452373;28;45216;-84
2022/03/11 03:32:02;;;;;;;;;24.50;21.00;;;;;10.00;57.94;100983.59;2451549;27;46550;-83
2022/03/11 03:33:13;;;;;;;;;24.50;24.00;;;;;9.98;57.91;100990.63;2452310;27;45502;-83
2022/03/11 03:34:36;;;;;;;;;25.50;24.00;;;;;9.97;57.96;100986.28;2452103;27;46465;-83
2022/03/11 03:35:46;;;;;;;;;27.25;23.50;;;;;9.94;57.86;100983.72;2452262;28;45374;-83
2022/03/11 03:37:01;;;;;;;;;22.50;21.00;;;;;9.92;58.05;100988.16;2452254;28;45460;-83
2022/03/11 03:38:11;;;;;;;;;27.75;26.00;;;;;9.92;58.27;100993.41;2452116;27;45206;-83
2022/03/11 03:39:22;;;;;;;;;25.25;24.00;;;;;9.90;58.10;100991.69;2452308;28;46441;-83
2022/03/11 03:40:33;;;;;;;;;18.75;18.00;;;;;9.88;58.13;100990.00;2452237;28;45301;-81
2022/03/11 03:41:43;;;;;;;;;22.00;21.75;;;;;9.84;58.08;100986.59;2451767;27;45311;-82
2022/03/11 03:42:53;;;;;;;;;22.75;22.00;;;;;9.82;58.29;100985.78;2452274;28;45394;-83
2022/03/11 03:44:04;;;;;;;;;24.50;23.50;;;;;9.81;58.09;100983.19;2452042;28;45352;-83
2022/03/11 03:45:16;;;;;;;;;28.25;24.00;;;;;9.80;58.07;100992.84;2452358;28;45270;-82
2022/03/11 03:46:26;;;;;;;;;23.25;20.75;;;;;9.78;58.50;100990.25;2452162;27;46422;-82
2022/03/11 03:47:36;;;;;;;;;22.00;20.75;;;;;9.76;58.58;100994.66;2451540;28;45357;-87
2022/03/11 03:48:47;;;;;;;;;26.25;25.00;;;;;9.73;58.67;100991.28;2451705;28;46343;-88
2022/03/11 03:49:57;;;;;;;;;24.75;21.25;;;;;9.69;58.54;100990.47;2451294;28;45461;-87
2022/03/11 03:51:08;;;;;;;;;27.50;24.00;;;;;9.66;58.44;100988.78;2451625;28;45382;-82
2022/03/11 03:52:18;;;;;;;;;26.25;24.50;;;;;9.66;58.79;100983.53;2451949;28;44825;-82
2022/03/11 03:53:28;;;;;;;;;25.75;24.25;;;;;9.63;58.78;100975.75;2451158;28;48641;-82
2022/03/11 03:54:39;;;;;;;;;28.25;23.00;;;;;9.62;58.49;100975.78;2451816;28;45220;-83
2022/03/11 03:55:50;;;;;;;;;28.25;23.50;;;;;9.60;58.77;100975.84;2451405;28;47823;-83
2022/03/11 03:57:00;;;;;;;;;27.50;24.00;;;;;9.57;59.00;100970.66;2444550;28;44647;-83
2022/03/11 03:58:10;;;;;;;;;25.75;24.75;;;;;9.57;59.19;100970.66;2451623;28;45490;-84
2022/03/11 03:59:24;;;;;;;;;28.50;22.00;;;;;9.54;59.05;100971.59;2452281;28;46484;-84
2022/03/11 04:00:34;;;;;;;;;28.50;25.25;;;;;9.54;59.10;100970.72;2452215;27;46377;-84
2022/03/11 04:01:45;;;;;;;;;29.25;24.00;;;;;9.53;59.20;100969.03;2451544;28;45577;-84
2022/03/11 04:02:55;;;;;;;;;21.00;20.75;;;;;9.49;58.98;100962.09;2451889;28;45385;-84
2022/03/11 04:04:07;;;;;;;;;27.00;25.50;;;;;9.46;59.20;100963.03;2451519;28;44669;-84
2022/03/11 04:05:18;;;;;;;;;24.50;20.75;;;;;9.46;59.06;100963.03;2443973;28;47336;-84
2022/03/11 04:06:33;;;;;;;;;24.75;23.50;;;;;9.42;59.33;100961.41;2451766;28;45375;-83
2022/03/11 04:07:45;;;;;;;;;25.75;22.75;;;;;9.42;59.40;100961.41;2451982;28;45585;-85
2022/03/11 04:08:57;;;;;;;;;24.00;22.00;;;;;9.40;59.51;100964.06;2451031;28;45390;-85
2022/03/11 04:10:08;;;;;;;;;30.75;26.75;;;;;9.40;59.40;100966.69;2451554;28;45365;-85
2022/03/11 04:11:18;;;;;;;;;25.50;23.25;;;;;9.36;59.72;100965.03;2455544;27;45184;-83
2022/03/11 04:12:28;;;;;;;;;27.25;22.75;;;;;9.36;59.88;100961.56;2451240;28;47354;-83
2022/03/11 04:13:39;;;;;;;;;19.50;19.25;;;;;9.36;59.99;100961.56;2451500;28;45201;-82
2022/03/11 04:14:49;;;;;;;;;30.75;25.00;;;;;9.35;59.66;100960.69;2451957;27;45339;-82
2022/03/11 04:15:59;;;;;;;;;26.50;24.25;;;;;9.33;59.89;100965.13;2452102;27;45160;-82
2022/03/11 04:17:10;;;;;;;;;26.50;22.75;;;;;9.32;60.16;100963.38;2451921;28;46190;-83
2022/03/11 04:18:20;;;;;;;;;25.00;22.25;;;;;9.30;59.99;100957.31;2452234;28;45186;-83
2022/03/11 04:19:31;;;;;;;;;23.00;21.50;;;;;9.29;60.17;100955.59;2451694;28;45218;-82
2022/03/11 04:20:41;;;;;;;;;25.00;23.75;;;;;9.27;60.10;100952.13;2452151;28;45429;-81
2022/03/11 04:21:53;;;;;;;;;31.00;23.75;;;;;9.25;59.92;100946.06;2452088;28;45461;-81
2022/03/11 04:23:03;;;;;;;;;24.00;22.00;;;;;9.25;60.39;100946.06;2451683;28;45463;-81
2022/03/11 04:24:14;;;;;;;;;23.50;18.00;;;;;9.26;60.30;100950.44;2451925;27;45320;-82
2022/03/11 04:25:25;;;;;;;;;22.50;19.00;;;;;9.25;60.24;100951.31;2452102;27;45489;-83
2022/03/11 04:26:35;;;;;;;;;24.75;21.25;;;;;9.21;60.41;100946.13;2452035;28;46050;-82
2022/03/11 04:27:46;;;;;;;;;23.25;20.00;;;;;9.20;60.37;100949.69;2452013;27;45309;-82
2022/03/11 04:28:56;;;;;;;;;21.50;20.00;;;;;9.20;60.55;100952.31;2451649;28;45472;-81
2022/03/11 04:30:07;;;;;;;;;28.00;24.00;;;;;9.20;60.01;100960.16;2452082;28;45329;-81
2022/03/11 04:31:18;;;;;;;;;20.00;18.75;;;;;9.16;60.70;100953.25;2450395;27;45512;-81
2022/03/11 04:32:28;;;;;;;;;23.50;20.75;;;;;9.18;60.07;100964.59;2451576;28;45187;-81
2022/03/11 04:33:40;;;;;;;;;21.50;20.00;;;;;9.16;60.23;100960.28;2451940;27;45244;-82
2022/03/11 04:34:50;;;;;;;;;28.25;24.75;;;;;9.15;60.49;100959.41;2451725;27;45244;-82
2022/03/11 04:36:03;;;;;;;;;21.00;19.50;;;;;9.16;60.23;100960.28;2451552;27;46119;-81
2022/03/11 04:37:13;;;;;;;;;18.75;17.25;;;;;9.14;60.67;100956.81;2452050;27;45188;-82
2022/03/11 04:38:23;;;;;;;;;27.50;24.50;;;;;9.13;60.61;100958.59;2450720;28;46347;-81
2022/03/11 04:39:34;;;;;;;;;21.75;20.00;;;;;9.10;60.78;100956.03;2451475;28;44720;-82
2022/03/11 04:40:44;;;;;;;;;25.25;24.00;;;;;9.10;60.72;100950.78;2451763;28;45325;-81
2022/03/11 04:41:56;;;;;;;;;26.75;24.00;;;;;9.09;60.83;100954.28;2451352;28;44669;-80
2022/03/11 04:43:06;;;;;;;;;23.50;20.75;;;;;9.06;60.39;100955.22;2444031;28;47580;-80
2022/03/11 04:44:16;;;;;;;;;23.00;19.50;;;;;9.05;60.71;100957.91;2444109;28;45257;-80
2022/03/11 04:45:28;;;;;;;;;21.25;21.25;;;;;9.04;60.83;100964.88;2444180;28;48178;-80
2022/03/11 04:46:38;;;;;;;;;22.25;21.25;;;;;9.02;60.61;100963.19;2443881;28;45236;-81
2022/03/11 04:47:48;;;;;;;;;28.00;23.75;;;;;9.01;60.82;100967.59;2451280;28;46079;-81
2022/03/11 04:48:59;;;;;;;;;29.75;26.75;;;;;8.99;60.54;100965.00;2451925;27;44599;-81
2022/03/11 04:50:09;;;;;;;;;25.00;20.50;;;;;8.97;61.00;100964.19;2451761;27;45576;-79
2022/03/11 04:51:22;;;;;;;;;22.50;20.75;;;;;8.97;61.11;100965.94;2451850;27;45323;-79
2022/03/11 04:52:33;;;;;;;;;19.75;18.00;;;;;8.94;60.77;100958.16;2451692;28;45183;-79
2022/03/11 04:53:44;;;;;;;;;28.25;22.25;;;;;8.93;60.81;100959.03;2451672;27;44696;-79
2022/03/11 04:54:54;;;;;;;;;24.25;19.75;;;;;8.93;61.30;100961.66;2451451;28;45328;-79
2022/03/11 04:56:04;;;;;;;;;21.25;18.00;;;;;8.91;60.91;100955.59;2451891;28;45239;-79
2022/03/11 04:57:15;;;;;;;;;23.00;20.25;;;;;8.90;61.25;100954.72;2451709;28;46197;-79
2022/03/11 04:58:25;;;;;;;;;24.25;22.00;;;;;8.88;60.81;100953.91;2452044;28;44603;-79
2022/03/11 04:59:36;;;;;;;;;24.75;21.00;;;;;8.87;61.23;100953.03;2450748;28;46958;-80
2022/03/11 05:00:46;;;;;;;;;23.75;20.25;;;;;8.85;61.56;100946.97;2444008;28;45197;-80
2022/03/11 05:01:56;;;;;;;;;23.50;20.75;;;;;8.84;61.07;100950.47;2450819;28;45445;-79
2022/03/11 05:03:07;;;;;;;;;25.25;22.75;;;;;8.84;61.24;100944.38;2451166;27;45305;-81
2022/03/11 05:04:17;;;;;;;;;21.50;18.75;;;;;8.83;61.40;100940.03;2451514;27;46107;-80
2022/03/11 05:05:29;;;;;;;;;22.50;20.25;;;;;8.81;61.10;100942.69;2451161;28;44794;-81
2022/03/11 05:06:39;;;;;;;;;26.25;25.00;;;;;8.80;61.70;100948.81;2451680;28;46548;-79
2022/03/11 05:07:49;;;;;;;;;22.25;19.50;;;;;8.80;62.07;100947.97;2451451;28;45146;-80
2022/03/11 05:09:00;;;;;;;;;23.50;21.00;;;;;8.78;61.81;100948.00;2451723;27;45368;-80
2022/03/11 05:10:14;;;;;;;;;23.00;22.00;;;;;8.75;61.89;100956.78;2451729;27;45177;-81
2022/03/11 05:11:24;;;;;;;;;23.00;18.00;;;;;8.75;61.99;100940.19;2447750;28;46345;-80
2022/03/11 05:12:35;;;;;;;;;19.50;17.50;;;;;8.74;61.59;100944.56;2451723;27;45297;-80
2022/03/11 05:13:45;;;;;;;;;18.50;17.50;;;;;8.75;62.06;100946.31;2451383;27;45371;-81
2022/03/11 05:14:56;;;;;;;;;23.25;22.00;;;;;8.75;61.78;100945.44;2450889;27;45279;-80
2022/03/11 05:16:06;;;;;;;;;23.50;20.25;;;;;8.73;61.72;100932.38;2451193;28;45418;-80
2022/03/11 05:17:17;;;;;;;;;24.25;18.50;;;;;8.75;61.83;100933.19;2451683;28;44700;-80
2022/03/11 05:18:27;;;;;;;;;21.50;17.25;;;;;8.75;61.85;100929.72;2451524;28;45354;-81
2022/03/11 05:19:37;;;;;;;;;19.25;17.50;;;;;8.74;62.13;100925.38;2451643;27;45215;-81
2022/03/11 05:20:48;;;;;;;;;22.50;17.50;;;;;8.74;62.16;100930.63;2451381;27;45414;-81
2022/03/11 05:21:58;;;;;;;;;20.50;16.50;;;;;8.74;62.11;100933.25;2451737;28;45210;-80
2022/03/11 05:23:08;;;;;;;;;22.75;18.75;;;;;8.73;61.63;100927.13;2450558;27;46970;-81